sensor_id;sensor_type;location;lat;lon;timestamp;P1;durP1;ratioP1;P2;durP2;ratioP2
51949;SDS011;37974;53.218;6.640;2022-10-16T00:00:43;10.07;;;1.42;;
51949;SDS011;37974;53.218;6.640;2022-10-16T00:03:09;6.65;;;1.70;;
51949;SDS011;37974;53.218;6.640;2022-10-16T00:05:38;6.90;;;1.77;;
51949;SDS011;37974;53.218;6.640;2022-10-16T00:08:06;9.63;;;1.73;;
51949;SDS011;37974;53.218;6.640;2022-10-16T00:10:32;9.52;;;2.30;;
51949;SDS011;37974;53.218;6.640;2022-10-16T00:12:58;6.72;;;1.58;;
51949;SDS011;37974;53.218;6.640;2022-10-16T00:15:24;12.23;;;2.08;;
51949;SDS011;37974;53.218;6.640;2022-10-16T00:17:49;11.95;;;1.63;;
51949;SDS011;37974;53.218;6.640;2022-10-16T00:20:15;11.20;;;1.73;;
51949;SDS011;37974;53.218;6.640;2022-10-16T00:22:41;10.20;;;1.70;;
51949;SDS011;37974;53.218;6.640;2022-10-16T00:25:06;9.25;;;1.48;;
51949;SDS011;37974;53.218;6.640;2022-10-16T00:27:33;8.38;;;1.65;;
51949;SDS011;37974;53.218;6.640;2022-10-16T00:29:59;10.52;;;1.50;;
51949;SDS011;37974;53.218;6.640;2022-10-16T00:32:24;12.63;;;1.60;;
51949;SDS011;37974;53.218;6.640;2022-10-16T00:34:50;9.77;;;1.55;;
51949;SDS011;37974;53.218;6.640;2022-10-16T00:37:16;16.13;;;2.17;;
51949;SDS011;37974;53.218;6.640;2022-10-16T00:39:41;13.00;;;1.77;;
51949;SDS011;37974;53.218;6.640;2022-10-16T00:42:09;12.73;;;1.75;;
51949;SDS011;37974;53.218;6.640;2022-10-16T00:44:44;10.57;;;1.67;;
51949;SDS011;37974;53.218;6.640;2022-10-16T00:47:21;6.93;;;1.35;;
51949;SDS011;37974;53.218;6.640;2022-10-16T00:49:51;8.35;;;1.35;;
51949;SDS011;37974;53.218;6.640;2022-10-16T00:52:21;11.75;;;1.67;;
51949;SDS011;37974;53.218;6.640;2022-10-16T00:54:47;10.32;;;1.20;;
51949;SDS011;37974;53.218;6.640;2022-10-16T00:57:15;10.32;;;1.83;;
51949;SDS011;37974;53.218;6.640;2022-10-16T00:59:41;5.15;;;1.40;;
51949;SDS011;37974;53.218;6.640;2022-10-16T01:02:09;9.82;;;1.40;;
51949;SDS011;37974;53.218;6.640;2022-10-16T01:04:38;10.85;;;1.65;;
51949;SDS011;37974;53.218;6.640;2022-10-16T01:15:11;7.85;;;1.35;;
51949;SDS011;37974;53.218;6.640;2022-10-16T01:17:51;17.63;;;2.20;;
51949;SDS011;37974;53.218;6.640;2022-10-16T01:22:50;7.22;;;1.67;;
51949;SDS011;37974;53.218;6.640;2022-10-16T01:28:32;7.93;;;1.70;;
51949;SDS011;37974;53.218;6.640;2022-10-16T01:31:04;8.10;;;1.42;;
51949;SDS011;37974;53.218;6.640;2022-10-16T01:33:39;10.32;;;1.52;;
51949;SDS011;37974;53.218;6.640;2022-10-16T01:36:11;10.20;;;1.38;;
51949;SDS011;37974;53.218;6.640;2022-10-16T01:38:40;7.35;;;1.50;;
51949;SDS011;37974;53.218;6.640;2022-10-16T01:41:11;10.43;;;1.13;;
51949;SDS011;37974;53.218;6.640;2022-10-16T01:43:45;7.70;;;2.05;;
51949;SDS011;37974;53.218;6.640;2022-10-16T01:46:16;7.40;;;1.23;;
51949;SDS011;37974;53.218;6.640;2022-10-16T01:48:45;7.90;;;1.52;;
51949;SDS011;37974;53.218;6.640;2022-10-16T01:51:12;5.40;;;1.73;;
51949;SDS011;37974;53.218;6.640;2022-10-16T01:53:40;9.98;;;1.65;;
51949;SDS011;37974;53.218;6.640;2022-10-16T01:56:09;7.28;;;1.10;;
51949;SDS011;37974;53.218;6.640;2022-10-16T01:58:39;8.55;;;1.65;;
51949;SDS011;37974;53.218;6.640;2022-10-16T02:01:08;7.57;;;1.15;;
51949;SDS011;37974;53.218;6.640;2022-10-16T02:03:36;7.13;;;1.67;;
51949;SDS011;37974;53.218;6.640;2022-10-16T02:06:06;5.53;;;1.40;;
51949;SDS011;37974;53.218;6.640;2022-10-16T02:08:32;7.40;;;1.10;;
51949;SDS011;37974;53.218;6.640;2022-10-16T02:10:58;7.47;;;1.48;;
51949;SDS011;37974;53.218;6.640;2022-10-16T02:13:30;9.10;;;1.27;;
51949;SDS011;37974;53.218;6.640;2022-10-16T02:16:02;8.55;;;1.42;;
51949;SDS011;37974;53.218;6.640;2022-10-16T02:18:28;7.22;;;1.45;;
51949;SDS011;37974;53.218;6.640;2022-10-16T02:21:00;7.85;;;1.23;;
51949;SDS011;37974;53.218;6.640;2022-10-16T02:23:35;6.15;;;1.30;;
51949;SDS011;37974;53.218;6.640;2022-10-16T02:26:08;5.47;;;1.20;;
51949;SDS011;37974;53.218;6.640;2022-10-16T02:28:40;7.03;;;1.40;;
51949;SDS011;37974;53.218;6.640;2022-10-16T02:31:11;10.10;;;1.40;;
51949;SDS011;37974;53.218;6.640;2022-10-16T02:33:41;5.43;;;1.27;;
51949;SDS011;37974;53.218;6.640;2022-10-16T02:36:09;4.35;;;1.20;;
51949;SDS011;37974;53.218;6.640;2022-10-16T02:38:35;3.75;;;1.15;;
51949;SDS011;37974;53.218;6.640;2022-10-16T02:41:01;6.35;;;1.35;;
51949;SDS011;37974;53.218;6.640;2022-10-16T02:43:28;9.25;;;1.50;;
51949;SDS011;37974;53.218;6.640;2022-10-16T02:45:54;7.03;;;1.20;;
51949;SDS011;37974;53.218;6.640;2022-10-16T02:48:20;9.23;;;1.60;;
51949;SDS011;37974;53.218;6.640;2022-10-16T02:50:46;5.53;;;1.20;;
51949;SDS011;37974;53.218;6.640;2022-10-16T02:53:11;4.97;;;1.33;;
51949;SDS011;37974;53.218;6.640;2022-10-16T02:55:37;6.55;;;1.30;;
51949;SDS011;37974;53.218;6.640;2022-10-16T02:58:03;14.18;;;1.83;;
51949;SDS011;37974;53.218;6.640;2022-10-16T03:00:28;6.60;;;1.20;;
51949;SDS011;37974;53.218;6.640;2022-10-16T03:02:54;6.30;;;1.52;;
51949;SDS011;37974;53.218;6.640;2022-10-16T03:05:20;3.22;;;1.10;;
51949;SDS011;37974;53.218;6.640;2022-10-16T03:07:46;7.80;;;1.30;;
51949;SDS011;37974;53.218;6.640;2022-10-16T03:10:11;4.57;;;1.30;;
51949;SDS011;37974;53.218;6.640;2022-10-16T03:12:37;2.10;;;0.90;;
51949;SDS011;37974;53.218;6.640;2022-10-16T03:15:03;8.30;;;1.45;;
51949;SDS011;37974;53.218;6.640;2022-10-16T03:17:29;6.85;;;1.42;;
51949;SDS011;37974;53.218;6.640;2022-10-16T03:19:55;9.77;;;1.50;;
51949;SDS011;37974;53.218;6.640;2022-10-16T03:22:20;4.10;;;1.20;;
51949;SDS011;37974;53.218;6.640;2022-10-16T03:24:46;6.88;;;1.30;;
51949;SDS011;37974;53.218;6.640;2022-10-16T03:27:11;4.10;;;1.23;;
51949;SDS011;37974;53.218;6.640;2022-10-16T03:29:37;5.22;;;1.30;;
51949;SDS011;37974;53.218;6.640;2022-10-16T03:32:03;7.28;;;1.67;;
51949;SDS011;37974;53.218;6.640;2022-10-16T03:34:28;5.97;;;1.30;;
51949;SDS011;37974;53.218;6.640;2022-10-16T03:36:54;6.80;;;1.30;;
51949;SDS011;37974;53.218;6.640;2022-10-16T03:39:20;5.50;;;1.10;;
51949;SDS011;37974;53.218;6.640;2022-10-16T03:41:45;8.63;;;1.17;;
51949;SDS011;37974;53.218;6.640;2022-10-16T03:44:11;4.43;;;1.27;;
51949;SDS011;37974;53.218;6.640;2022-10-16T03:46:37;7.88;;;1.23;;
51949;SDS011;37974;53.218;6.640;2022-10-16T03:49:03;5.90;;;1.38;;
51949;SDS011;37974;53.218;6.640;2022-10-16T03:51:29;5.65;;;1.58;;
51949;SDS011;37974;53.218;6.640;2022-10-16T03:53:54;9.05;;;1.48;;
51949;SDS011;37974;53.218;6.640;2022-10-16T03:56:20;4.45;;;1.33;;
51949;SDS011;37974;53.218;6.640;2022-10-16T03:58:45;8.93;;;1.20;;
51949;SDS011;37974;53.218;6.640;2022-10-16T04:01:11;6.68;;;1.42;;
51949;SDS011;37974;53.218;6.640;2022-10-16T04:03:37;9.05;;;1.50;;
51949;SDS011;37974;53.218;6.640;2022-10-16T04:06:02;6.47;;;1.38;;
51949;SDS011;37974;53.218;6.640;2022-10-16T04:08:28;8.93;;;1.50;;
51949;SDS011;37974;53.218;6.640;2022-10-16T04:10:54;8.30;;;1.25;;
51949;SDS011;37974;53.218;6.640;2022-10-16T04:13:19;6.05;;;1.45;;
51949;SDS011;37974;53.218;6.640;2022-10-16T04:15:45;6.25;;;1.25;;
51949;SDS011;37974;53.218;6.640;2022-10-16T04:18:11;7.97;;;1.75;;
51949;SDS011;37974;53.218;6.640;2022-10-16T04:20:37;8.95;;;1.58;;
51949;SDS011;37974;53.218;6.640;2022-10-16T04:23:03;7.38;;;1.60;;
51949;SDS011;37974;53.218;6.640;2022-10-16T04:25:29;9.07;;;1.60;;
51949;SDS011;37974;53.218;6.640;2022-10-16T04:27:55;6.88;;;1.65;;
51949;SDS011;37974;53.218;6.640;2022-10-16T04:30:21;5.50;;;1.30;;
51949;SDS011;37974;53.218;6.640;2022-10-16T04:32:48;8.25;;;1.60;;
51949;SDS011;37974;53.218;6.640;2022-10-16T04:35:15;4.45;;;1.40;;
51949;SDS011;37974;53.218;6.640;2022-10-16T04:37:41;4.65;;;1.40;;
51949;SDS011;37974;53.218;6.640;2022-10-16T04:40:07;4.18;;;1.50;;
51949;SDS011;37974;53.218;6.640;2022-10-16T04:42:33;6.93;;;1.42;;
51949;SDS011;37974;53.218;6.640;2022-10-16T04:44:58;6.47;;;1.20;;
51949;SDS011;37974;53.218;6.640;2022-10-16T04:47:24;6.43;;;1.58;;
51949;SDS011;37974;53.218;6.640;2022-10-16T04:49:49;4.55;;;1.60;;
51949;SDS011;37974;53.218;6.640;2022-10-16T04:52:15;3.90;;;1.20;;
51949;SDS011;37974;53.218;6.640;2022-10-16T04:54:41;8.65;;;1.33;;
51949;SDS011;37974;53.218;6.640;2022-10-16T04:57:07;4.63;;;1.40;;
51949;SDS011;37974;53.218;6.640;2022-10-16T04:59:33;3.72;;;1.25;;
51949;SDS011;37974;53.218;6.640;2022-10-16T05:01:58;3.38;;;1.20;;
51949;SDS011;37974;53.218;6.640;2022-10-16T05:04:24;8.75;;;1.60;;
51949;SDS011;37974;53.218;6.640;2022-10-16T05:06:50;7.13;;;1.40;;
51949;SDS011;37974;53.218;6.640;2022-10-16T05:09:15;6.15;;;1.50;;
51949;SDS011;37974;53.218;6.640;2022-10-16T05:11:41;7.90;;;2.17;;
51949;SDS011;37974;53.218;6.640;2022-10-16T05:14:07;6.13;;;1.50;;
51949;SDS011;37974;53.218;6.640;2022-10-16T05:16:32;6.38;;;1.70;;
51949;SDS011;37974;53.218;6.640;2022-10-16T05:18:58;6.68;;;1.58;;
51949;SDS011;37974;53.218;6.640;2022-10-16T05:21:24;5.75;;;1.38;;
51949;SDS011;37974;53.218;6.640;2022-10-16T05:23:49;8.45;;;1.50;;
51949;SDS011;37974;53.218;6.640;2022-10-16T05:26:15;5.97;;;1.60;;
51949;SDS011;37974;53.218;6.640;2022-10-16T05:28:41;8.80;;;1.70;;
51949;SDS011;37974;53.218;6.640;2022-10-16T05:31:07;6.82;;;1.65;;
51949;SDS011;37974;53.218;6.640;2022-10-16T05:33:34;6.05;;;1.55;;
51949;SDS011;37974;53.218;6.640;2022-10-16T05:36:02;5.63;;;1.50;;
51949;SDS011;37974;53.218;6.640;2022-10-16T05:38:28;6.25;;;1.88;;
51949;SDS011;37974;53.218;6.640;2022-10-16T05:40:54;7.13;;;1.83;;
51949;SDS011;37974;53.218;6.640;2022-10-16T05:43:20;3.53;;;1.50;;
51949;SDS011;37974;53.218;6.640;2022-10-16T05:45:53;5.28;;;2.00;;
51949;SDS011;37974;53.218;6.640;2022-10-16T05:48:19;6.28;;;2.05;;
51949;SDS011;37974;53.218;6.640;2022-10-16T05:50:45;6.47;;;1.90;;
51949;SDS011;37974;53.218;6.640;2022-10-16T05:53:11;10.68;;;2.13;;
51949;SDS011;37974;53.218;6.640;2022-10-16T05:55:36;7.68;;;2.47;;
51949;SDS011;37974;53.218;6.640;2022-10-16T05:58:02;7.43;;;1.95;;
51949;SDS011;37974;53.218;6.640;2022-10-16T06:00:28;6.55;;;1.92;;
51949;SDS011;37974;53.218;6.640;2022-10-16T06:02:53;9.32;;;2.15;;
51949;SDS011;37974;53.218;6.640;2022-10-16T06:05:19;7.35;;;1.95;;
51949;SDS011;37974;53.218;6.640;2022-10-16T06:07:45;6.60;;;1.60;;
51949;SDS011;37974;53.218;6.640;2022-10-16T06:10:10;5.50;;;1.83;;
51949;SDS011;37974;53.218;6.640;2022-10-16T06:12:36;6.15;;;2.05;;
51949;SDS011;37974;53.218;6.640;2022-10-16T06:15:02;6.20;;;2.03;;
51949;SDS011;37974;53.218;6.640;2022-10-16T06:17:27;10.07;;;2.40;;
51949;SDS011;37974;53.218;6.640;2022-10-16T06:19:53;8.35;;;2.08;;
51949;SDS011;37974;53.218;6.640;2022-10-16T06:22:19;8.30;;;2.78;;
51949;SDS011;37974;53.218;6.640;2022-10-16T06:24:45;6.07;;;2.05;;
51949;SDS011;37974;53.218;6.640;2022-10-16T06:27:11;7.65;;;2.03;;
51949;SDS011;37974;53.218;6.640;2022-10-16T06:29:37;7.60;;;2.35;;
51949;SDS011;37974;53.218;6.640;2022-10-16T06:32:02;12.50;;;2.03;;
51949;SDS011;37974;53.218;6.640;2022-10-16T06:34:28;5.47;;;2.00;;
51949;SDS011;37974;53.218;6.640;2022-10-16T06:36:54;8.43;;;2.10;;
51949;SDS011;37974;53.218;6.640;2022-10-16T06:39:20;6.13;;;1.85;;
51949;SDS011;37974;53.218;6.640;2022-10-16T06:41:45;7.43;;;2.22;;
51949;SDS011;37974;53.218;6.640;2022-10-16T06:44:11;10.85;;;2.40;;
51949;SDS011;37974;53.218;6.640;2022-10-16T06:46:37;7.80;;;2.38;;
51949;SDS011;37974;53.218;6.640;2022-10-16T06:49:03;12.75;;;2.22;;
51949;SDS011;37974;53.218;6.640;2022-10-16T06:51:28;8.18;;;1.92;;
51949;SDS011;37974;53.218;6.640;2022-10-16T06:53:56;8.02;;;1.85;;
51949;SDS011;37974;53.218;6.640;2022-10-16T06:56:23;8.38;;;2.03;;
51949;SDS011;37974;53.218;6.640;2022-10-16T06:58:50;7.07;;;1.75;;
51949;SDS011;37974;53.218;6.640;2022-10-16T07:01:18;9.88;;;1.73;;
51949;SDS011;37974;53.218;6.640;2022-10-16T07:03:45;7.28;;;2.08;;
51949;SDS011;37974;53.218;6.640;2022-10-16T07:06:13;10.85;;;2.22;;
51949;SDS011;37974;53.218;6.640;2022-10-16T07:08:41;8.85;;;2.00;;
51949;SDS011;37974;53.218;6.640;2022-10-16T07:11:09;8.98;;;2.05;;
51949;SDS011;37974;53.218;6.640;2022-10-16T07:13:38;5.32;;;1.63;;
51949;SDS011;37974;53.218;6.640;2022-10-16T07:16:06;7.25;;;1.52;;
51949;SDS011;37974;53.218;6.640;2022-10-16T07:18:34;5.68;;;1.73;;
51949;SDS011;37974;53.218;6.640;2022-10-16T07:21:07;8.90;;;2.00;;
51949;SDS011;37974;53.218;6.640;2022-10-16T07:23:35;8.35;;;1.70;;
51949;SDS011;37974;53.218;6.640;2022-10-16T07:26:01;9.07;;;2.03;;
51949;SDS011;37974;53.218;6.640;2022-10-16T07:28:28;8.40;;;1.65;;
51949;SDS011;37974;53.218;6.640;2022-10-16T07:30:54;15.77;;;1.80;;
51949;SDS011;37974;53.218;6.640;2022-10-16T07:33:20;14.20;;;2.03;;
51949;SDS011;37974;53.218;6.640;2022-10-16T07:35:48;6.57;;;2.03;;
51949;SDS011;37974;53.218;6.640;2022-10-16T07:38:17;5.15;;;1.70;;
51949;SDS011;37974;53.218;6.640;2022-10-16T07:40:43;6.05;;;1.85;;
51949;SDS011;37974;53.218;6.640;2022-10-16T07:43:09;9.07;;;2.17;;
51949;SDS011;37974;53.218;6.640;2022-10-16T07:45:35;6.93;;;1.70;;
51949;SDS011;37974;53.218;6.640;2022-10-16T07:48:01;11.38;;;2.15;;
51949;SDS011;37974;53.218;6.640;2022-10-16T07:50:27;7.30;;;1.88;;
51949;SDS011;37974;53.218;6.640;2022-10-16T07:52:52;13.65;;;2.00;;
51949;SDS011;37974;53.218;6.640;2022-10-16T07:55:18;5.93;;;2.03;;
51949;SDS011;37974;53.218;6.640;2022-10-16T07:57:44;8.90;;;1.88;;
51949;SDS011;37974;53.218;6.640;2022-10-16T08:00:09;7.50;;;2.05;;
51949;SDS011;37974;53.218;6.640;2022-10-16T08:02:41;5.68;;;1.67;;
51949;SDS011;37974;53.218;6.640;2022-10-16T08:05:07;5.60;;;1.80;;
51949;SDS011;37974;53.218;6.640;2022-10-16T08:07:33;6.00;;;1.92;;
51949;SDS011;37974;53.218;6.640;2022-10-16T08:09:59;10.60;;;1.88;;
51949;SDS011;37974;53.218;6.640;2022-10-16T08:12:25;27.80;;;5.35;;
51949;SDS011;37974;53.218;6.640;2022-10-16T08:14:51;7.15;;;1.65;;
51949;SDS011;37974;53.218;6.640;2022-10-16T08:17:17;6.22;;;2.20;;
51949;SDS011;37974;53.218;6.640;2022-10-16T08:19:44;9.75;;;1.73;;
51949;SDS011;37974;53.218;6.640;2022-10-16T08:22:10;7.43;;;2.20;;
51949;SDS011;37974;53.218;6.640;2022-10-16T08:24:36;5.78;;;1.98;;
51949;SDS011;37974;53.218;6.640;2022-10-16T08:27:02;6.82;;;2.00;;
51949;SDS011;37974;53.218;6.640;2022-10-16T08:29:29;7.25;;;2.00;;
51949;SDS011;37974;53.218;6.640;2022-10-16T08:31:54;5.85;;;1.73;;
51949;SDS011;37974;53.218;6.640;2022-10-16T08:34:20;9.45;;;1.83;;
51949;SDS011;37974;53.218;6.640;2022-10-16T08:36:46;7.85;;;1.67;;
51949;SDS011;37974;53.218;6.640;2022-10-16T08:39:15;5.85;;;1.50;;
51949;SDS011;37974;53.218;6.640;2022-10-16T08:42:00;10.93;;;1.30;;
51949;SDS011;37974;53.218;6.640;2022-10-16T08:44:43;10.70;;;1.52;;
51949;SDS011;37974;53.218;6.640;2022-10-16T08:47:20;4.78;;;1.40;;
51949;SDS011;37974;53.218;6.640;2022-10-16T08:49:58;6.43;;;1.27;;
51949;SDS011;37974;53.218;6.640;2022-10-16T08:52:29;6.47;;;1.08;;
51949;SDS011;37974;53.218;6.640;2022-10-16T08:54:59;4.73;;;1.30;;
51949;SDS011;37974;53.218;6.640;2022-10-16T08:57:25;8.13;;;1.30;;
51949;SDS011;37974;53.218;6.640;2022-10-16T08:59:52;7.57;;;1.48;;
51949;SDS011;37974;53.218;6.640;2022-10-16T09:10:30;7.85;;;1.92;;
51949;SDS011;37974;53.218;6.640;2022-10-16T09:15:40;7.60;;;1.30;;
51949;SDS011;37974;53.218;6.640;2022-10-16T09:20:59;8.57;;;1.58;;
51949;SDS011;37974;53.218;6.640;2022-10-16T09:23:35;9.75;;;1.33;;
51949;SDS011;37974;53.218;6.640;2022-10-16T09:26:02;6.20;;;1.05;;
51949;SDS011;37974;53.218;6.640;2022-10-16T09:28:30;8.63;;;1.30;;
51949;SDS011;37974;53.218;6.640;2022-10-16T09:30:55;9.70;;;3.53;;
51949;SDS011;37974;53.218;6.640;2022-10-16T09:33:28;9.98;;;1.75;;
51949;SDS011;37974;53.218;6.640;2022-10-16T09:35:59;9.98;;;2.30;;
51949;SDS011;37974;53.218;6.640;2022-10-16T09:38:31;12.93;;;1.83;;
51949;SDS011;37974;53.218;6.640;2022-10-16T09:40:59;15.45;;;1.92;;
51949;SDS011;37974;53.218;6.640;2022-10-16T09:43:28;11.38;;;1.60;;
51949;SDS011;37974;53.218;6.640;2022-10-16T09:46:02;12.25;;;2.50;;
51949;SDS011;37974;53.218;6.640;2022-10-16T09:48:33;13.15;;;2.60;;
51949;SDS011;37974;53.218;6.640;2022-10-16T09:51:01;7.88;;;1.88;;
51949;SDS011;37974;53.218;6.640;2022-10-16T09:53:38;10.05;;;1.60;;
51949;SDS011;37974;53.218;6.640;2022-10-16T09:56:06;15.98;;;2.47;;
51949;SDS011;37974;53.218;6.640;2022-10-16T09:58:32;12.07;;;1.90;;
51949;SDS011;37974;53.218;6.640;2022-10-16T10:00:58;13.85;;;2.22;;
51949;SDS011;37974;53.218;6.640;2022-10-16T10:03:37;24.38;;;3.38;;
51949;SDS011;37974;53.218;6.640;2022-10-16T10:06:13;18.58;;;2.05;;
51949;SDS011;37974;53.218;6.640;2022-10-16T10:08:53;13.30;;;2.25;;
51949;SDS011;37974;53.218;6.640;2022-10-16T10:14:14;10.00;;;1.80;;
51949;SDS011;37974;53.218;6.640;2022-10-16T10:16:44;17.67;;;2.47;;
51949;SDS011;37974;53.218;6.640;2022-10-16T10:19:16;13.73;;;2.15;;
51949;SDS011;37974;53.218;6.640;2022-10-16T10:21:43;13.90;;;2.20;;
51949;SDS011;37974;53.218;6.640;2022-10-16T10:24:13;15.02;;;2.22;;
51949;SDS011;37974;53.218;6.640;2022-10-16T10:26:41;9.63;;;1.73;;
51949;SDS011;37974;53.218;6.640;2022-10-16T10:31:56;19.52;;;2.50;;
51949;SDS011;37974;53.218;6.640;2022-10-16T10:34:42;10.82;;;2.38;;
51949;SDS011;37974;53.218;6.640;2022-10-16T10:40:34;13.80;;;1.90;;
51949;SDS011;37974;53.218;6.640;2022-10-16T10:43:16;10.52;;;2.10;;
51949;SDS011;37974;53.218;6.640;2022-10-16T10:45:47;10.38;;;1.83;;
51949;SDS011;37974;53.218;6.640;2022-10-16T10:48:24;16.55;;;2.25;;
51949;SDS011;37974;53.218;6.640;2022-10-16T10:51:10;14.23;;;2.40;;
51949;SDS011;37974;53.218;6.640;2022-10-16T10:53:55;15.63;;;2.17;;
51949;SDS011;37974;53.218;6.640;2022-10-16T10:56:43;14.95;;;2.17;;
51949;SDS011;37974;53.218;6.640;2022-10-16T11:02:00;17.02;;;2.70;;
51949;SDS011;37974;53.218;6.640;2022-10-16T11:04:42;14.32;;;2.30;;
51949;SDS011;37974;53.218;6.640;2022-10-16T11:07:18;12.60;;;2.20;;
51949;SDS011;37974;53.218;6.640;2022-10-16T11:09:51;18.65;;;2.28;;
51949;SDS011;37974;53.218;6.640;2022-10-16T11:12:27;14.55;;;2.03;;
51949;SDS011;37974;53.218;6.640;2022-10-16T11:14:58;15.05;;;2.13;;
51949;SDS011;37974;53.218;6.640;2022-10-16T11:17:39;11.95;;;2.08;;
51949;SDS011;37974;53.218;6.640;2022-10-16T11:20:13;14.13;;;1.55;;
51949;SDS011;37974;53.218;6.640;2022-10-16T11:28:02;12.13;;;2.40;;
51949;SDS011;37974;53.218;6.640;2022-10-16T11:30:47;13.43;;;2.17;;
51949;SDS011;37974;53.218;6.640;2022-10-16T11:38:27;17.20;;;2.20;;
51949;SDS011;37974;53.218;6.640;2022-10-16T11:44:05;11.40;;;1.63;;
51949;SDS011;37974;53.218;6.640;2022-10-16T11:46:52;16.48;;;2.20;;
51949;SDS011;37974;53.218;6.640;2022-10-16T11:49:26;12.77;;;1.80;;
51949;SDS011;37974;53.218;6.640;2022-10-16T11:54:42;14.45;;;1.90;;
51949;SDS011;37974;53.218;6.640;2022-10-16T11:57:17;18.30;;;2.00;;
51949;SDS011;37974;53.218;6.640;2022-10-16T11:59:48;15.77;;;3.03;;
51949;SDS011;37974;53.218;6.640;2022-10-16T12:02:31;11.13;;;1.60;;
51949;SDS011;37974;53.218;6.640;2022-10-16T12:07:43;11.95;;;1.75;;
51949;SDS011;37974;53.218;6.640;2022-10-16T12:10:19;20.30;;;2.10;;
51949;SDS011;37974;53.218;6.640;2022-10-16T12:12:48;16.25;;;2.28;;
51949;SDS011;37974;53.218;6.640;2022-10-16T12:17:49;18.13;;;2.28;;
51949;SDS011;37974;53.218;6.640;2022-10-16T12:20:19;10.60;;;1.80;;
51949;SDS011;37974;53.218;6.640;2022-10-16T12:22:48;11.15;;;2.08;;
51949;SDS011;37974;53.218;6.640;2022-10-16T12:28:00;12.82;;;2.30;;
51949;SDS011;37974;53.218;6.640;2022-10-16T12:30:39;11.80;;;2.35;;
51949;SDS011;37974;53.218;6.640;2022-10-16T12:33:15;15.50;;;2.40;;
51949;SDS011;37974;53.218;6.640;2022-10-16T12:35:51;18.70;;;2.45;;
51949;SDS011;37974;53.218;6.640;2022-10-16T12:38:18;16.42;;;2.50;;
51949;SDS011;37974;53.218;6.640;2022-10-16T12:40:44;18.45;;;2.50;;
51949;SDS011;37974;53.218;6.640;2022-10-16T12:45:45;15.23;;;2.38;;
51949;SDS011;37974;53.218;6.640;2022-10-16T12:48:20;18.08;;;1.88;;
51949;SDS011;37974;53.218;6.640;2022-10-16T12:50:47;15.35;;;2.55;;
51949;SDS011;37974;53.218;6.640;2022-10-16T12:53:18;16.20;;;2.60;;
51949;SDS011;37974;53.218;6.640;2022-10-16T12:58:44;14.10;;;1.80;;
51949;SDS011;37974;53.218;6.640;2022-10-16T13:01:28;17.48;;;2.72;;
51949;SDS011;37974;53.218;6.640;2022-10-16T13:04:14;15.65;;;2.70;;
51949;SDS011;37974;53.218;6.640;2022-10-16T13:06:55;16.33;;;2.08;;
51949;SDS011;37974;53.218;6.640;2022-10-16T13:12:40;16.92;;;2.70;;
51949;SDS011;37974;53.218;6.640;2022-10-16T13:17:49;11.50;;;2.00;;
51949;SDS011;37974;53.218;6.640;2022-10-16T13:23:02;9.20;;;1.90;;
51949;SDS011;37974;53.218;6.640;2022-10-16T13:25:53;14.75;;;2.20;;
51949;SDS011;37974;53.218;6.640;2022-10-16T13:28:27;14.30;;;1.90;;
51949;SDS011;37974;53.218;6.640;2022-10-16T13:30:55;14.20;;;2.17;;
51949;SDS011;37974;53.218;6.640;2022-10-16T13:33:28;15.50;;;2.33;;
51949;SDS011;37974;53.218;6.640;2022-10-16T13:35:57;12.43;;;2.05;;
51949;SDS011;37974;53.218;6.640;2022-10-16T13:38:24;14.07;;;2.53;;
51949;SDS011;37974;53.218;6.640;2022-10-16T13:40:57;18.98;;;2.60;;
51949;SDS011;37974;53.218;6.640;2022-10-16T13:43:34;15.63;;;2.65;;
51949;SDS011;37974;53.218;6.640;2022-10-16T13:46:05;11.45;;;1.88;;
51949;SDS011;37974;53.218;6.640;2022-10-16T13:48:33;14.70;;;2.30;;
51949;SDS011;37974;53.218;6.640;2022-10-16T13:51:01;13.20;;;2.53;;
51949;SDS011;37974;53.218;6.640;2022-10-16T13:53:30;15.35;;;1.98;;
51949;SDS011;37974;53.218;6.640;2022-10-16T13:55:57;11.40;;;1.90;;
51949;SDS011;37974;53.218;6.640;2022-10-16T13:58:25;12.68;;;2.15;;
51949;SDS011;37974;53.218;6.640;2022-10-16T14:00:53;13.40;;;2.45;;
51949;SDS011;37974;53.218;6.640;2022-10-16T14:03:21;14.77;;;1.90;;
51949;SDS011;37974;53.218;6.640;2022-10-16T14:05:50;15.32;;;2.20;;
51949;SDS011;37974;53.218;6.640;2022-10-16T14:08:18;12.32;;;2.05;;
51949;SDS011;37974;53.218;6.640;2022-10-16T14:10:47;13.70;;;1.70;;
51949;SDS011;37974;53.218;6.640;2022-10-16T14:13:19;19.00;;;1.98;;
51949;SDS011;37974;53.218;6.640;2022-10-16T14:15:49;9.82;;;1.85;;
51949;SDS011;37974;53.218;6.640;2022-10-16T14:18:19;17.10;;;2.67;;
51949;SDS011;37974;53.218;6.640;2022-10-16T14:20:48;23.98;;;3.20;;
51949;SDS011;37974;53.218;6.640;2022-10-16T14:25:45;12.75;;;2.08;;
51949;SDS011;37974;53.218;6.640;2022-10-16T14:28:18;19.20;;;2.35;;
51949;SDS011;37974;53.218;6.640;2022-10-16T14:30:52;16.10;;;2.08;;
51949;SDS011;37974;53.218;6.640;2022-10-16T14:33:22;13.57;;;2.30;;
51949;SDS011;37974;53.218;6.640;2022-10-16T14:36:01;17.90;;;2.60;;
51949;SDS011;37974;53.218;6.640;2022-10-16T14:38:29;16.70;;;1.90;;
51949;SDS011;37974;53.218;6.640;2022-10-16T14:40:57;10.93;;;1.83;;
51949;SDS011;37974;53.218;6.640;2022-10-16T14:43:32;15.18;;;2.50;;
51949;SDS011;37974;53.218;6.640;2022-10-16T14:46:02;20.90;;;2.25;;
51949;SDS011;37974;53.218;6.640;2022-10-16T14:48:31;15.00;;;2.53;;
51949;SDS011;37974;53.218;6.640;2022-10-16T14:50:57;11.98;;;2.08;;
51949;SDS011;37974;53.218;6.640;2022-10-16T14:53:23;16.98;;;2.78;;
51949;SDS011;37974;53.218;6.640;2022-10-16T14:55:48;18.40;;;2.40;;
51949;SDS011;37974;53.218;6.640;2022-10-16T14:58:15;23.88;;;2.70;;
51949;SDS011;37974;53.218;6.640;2022-10-16T15:00:44;20.92;;;3.17;;
51949;SDS011;37974;53.218;6.640;2022-10-16T15:03:10;19.60;;;2.63;;
51949;SDS011;37974;53.218;6.640;2022-10-16T15:05:36;20.02;;;2.53;;
51949;SDS011;37974;53.218;6.640;2022-10-16T15:08:02;14.80;;;2.03;;
51949;SDS011;37974;53.218;6.640;2022-10-16T15:10:29;15.18;;;2.45;;
51949;SDS011;37974;53.218;6.640;2022-10-16T15:12:57;17.63;;;3.17;;
51949;SDS011;37974;53.218;6.640;2022-10-16T15:17:59;20.20;;;2.92;;
51949;SDS011;37974;53.218;6.640;2022-10-16T15:20:27;19.27;;;2.97;;
51949;SDS011;37974;53.218;6.640;2022-10-16T15:22:55;17.98;;;3.03;;
51949;SDS011;37974;53.218;6.640;2022-10-16T15:27:57;17.83;;;2.00;;
51949;SDS011;37974;53.218;6.640;2022-10-16T15:30:25;18.90;;;2.13;;
51949;SDS011;37974;53.218;6.640;2022-10-16T15:32:51;16.55;;;2.03;;
51949;SDS011;37974;53.218;6.640;2022-10-16T15:35:17;13.77;;;1.90;;
51949;SDS011;37974;53.218;6.640;2022-10-16T15:37:43;15.75;;;2.10;;
51949;SDS011;37974;53.218;6.640;2022-10-16T15:40:10;19.15;;;2.58;;
51949;SDS011;37974;53.218;6.640;2022-10-16T15:42:36;12.60;;;1.90;;
51949;SDS011;37974;53.218;6.640;2022-10-16T15:45:02;17.70;;;2.30;;
51949;SDS011;37974;53.218;6.640;2022-10-16T15:47:29;14.20;;;2.47;;
51949;SDS011;37974;53.218;6.640;2022-10-16T15:49:55;18.13;;;2.25;;
51949;SDS011;37974;53.218;6.640;2022-10-16T15:52:20;12.38;;;2.25;;
51949;SDS011;37974;53.218;6.640;2022-10-16T15:54:46;14.23;;;2.20;;
51949;SDS011;37974;53.218;6.640;2022-10-16T15:57:12;15.95;;;2.58;;
51949;SDS011;37974;53.218;6.640;2022-10-16T15:59:37;17.90;;;2.80;;
51949;SDS011;37974;53.218;6.640;2022-10-16T16:02:03;15.93;;;2.10;;
51949;SDS011;37974;53.218;6.640;2022-10-16T16:04:29;11.88;;;1.75;;
51949;SDS011;37974;53.218;6.640;2022-10-16T16:06:56;20.42;;;2.67;;
51949;SDS011;37974;53.218;6.640;2022-10-16T16:09:21;13.40;;;1.73;;
51949;SDS011;37974;53.218;6.640;2022-10-16T16:11:47;12.75;;;2.38;;
51949;SDS011;37974;53.218;6.640;2022-10-16T16:14:14;16.10;;;2.63;;